createdAt,value
2024-01-27T00:02:37.256Z,1.39
2024-01-27T00:05:38.741Z,1.39
2024-01-27T00:08:39.933Z,1.38
2024-01-27T00:11:40.881Z,1.36
2024-01-27T00:14:41.872Z,1.33
2024-01-27T00:17:43.019Z,1.30
2024-01-27T00:20:44.125Z,1.27
2024-01-27T00:23:45.211Z,1.26
2024-01-27T00:26:46.510Z,1.27
2024-01-27T00:29:47.546Z,1.30
2024-01-27T00:32:48.603Z,1.33
2024-01-27T00:35:49.760Z,1.34
2024-01-27T00:38:50.779Z,1.34
2024-01-27T00:41:53.294Z,1.35
2024-01-27T00:44:54.314Z,1.34
2024-01-27T00:47:55.731Z,1.34
2024-01-27T00:50:56.752Z,1.35
2024-01-27T00:53:57.793Z,1.35
2024-01-27T00:56:58.736Z,1.36
2024-01-27T00:59:59.816Z,1.38
2024-01-27T01:03:00.998Z,1.39
2024-01-27T01:06:02.030Z,1.38
2024-01-27T01:09:03.094Z,1.36
2024-01-27T01:12:04.887Z,1.33
2024-01-27T01:15:06.541Z,1.30
2024-01-27T01:18:07.667Z,1.27
2024-01-27T01:21:08.757Z,1.26
2024-01-27T01:24:09.795Z,1.26
2024-01-27T01:30:51.669Z,1.28
2024-01-27T01:33:52.736Z,1.33
2024-01-27T01:36:54.948Z,1.37
2024-01-27T01:39:56.125Z,1.40
2024-01-27T01:42:59.797Z,1.41
2024-01-27T01:46:00.957Z,1.41
2024-01-27T01:49:02.765Z,1.39
2024-01-27T01:52:04.571Z,1.38
2024-01-27T01:55:06.161Z,1.36
2024-01-27T01:58:07.193Z,1.36
2024-01-27T02:01:08.762Z,1.38
2024-01-27T02:04:09.789Z,1.43
2024-01-27T02:07:10.939Z,1.48
2024-01-27T02:10:16.742Z,1.54
2024-01-27T02:13:21.995Z,1.61
2024-01-27T02:16:23.031Z,1.70
2024-01-27T02:19:25.057Z,1.78
2024-01-27T02:22:26.243Z,1.88
2024-01-27T02:25:27.222Z,1.94
2024-01-27T02:28:28.192Z,2.01
2024-01-27T02:31:29.380Z,2.07
2024-01-27T02:34:30.551Z,2.10
2024-01-27T02:37:31.905Z,2.16
2024-01-27T02:40:32.874Z,2.18
2024-01-27T02:43:33.862Z,2.20
2024-01-27T02:46:35.037Z,2.22
2024-01-27T02:49:36.439Z,2.22
2024-01-27T02:52:37.782Z,2.23
2024-01-27T02:55:38.755Z,2.24
2024-01-27T02:58:41.750Z,2.25
2024-01-27T03:01:42.750Z,2.25
2024-01-27T03:04:43.803Z,2.25
2024-01-27T03:07:44.992Z,2.25
2024-01-27T03:10:46.223Z,2.27
2024-01-27T03:13:47.199Z,2.30
2024-01-27T03:16:48.109Z,2.31
2024-01-27T03:19:49.913Z,2.32
2024-01-27T03:22:51.017Z,2.34
2024-01-27T03:25:52.145Z,2.34
2024-01-27T03:28:53.144Z,2.35
2024-01-27T03:31:54.093Z,2.34
2024-01-27T03:34:55.080Z,2.35
2024-01-27T03:37:56.284Z,2.35
2024-01-27T03:40:59.167Z,2.35
2024-01-27T03:44:00.114Z,2.34
2024-01-27T03:47:01.093Z,2.34
2024-01-27T03:50:02.153Z,2.34
2024-01-27T03:53:03.223Z,2.32
2024-01-27T03:56:05.289Z,2.32
2024-01-27T03:59:07.267Z,2.31
2024-01-27T04:02:08.312Z,2.30
2024-01-27T04:05:09.285Z,2.30
2024-01-27T04:08:10.283Z,2.30
2024-01-27T04:11:20.438Z,2.30
2024-01-27T04:14:21.329Z,2.30
2024-01-27T04:17:23.262Z,2.31
2024-01-27T04:20:24.459Z,2.30
2024-01-27T04:23:25.386Z,2.32
2024-01-27T04:26:26.505Z,2.33
2024-01-27T04:29:27.433Z,2.34
2024-01-27T04:32:28.654Z,2.35
2024-01-27T04:35:29.638Z,2.36
2024-01-27T04:38:30.627Z,2.37
2024-01-27T04:41:31.843Z,2.38
2024-01-27T04:44:33.943Z,2.38
2024-01-27T04:47:35.104Z,2.39
2024-01-27T04:50:36.449Z,2.40
2024-01-27T04:53:37.413Z,2.39
2024-01-27T04:56:38.902Z,2.39
2024-01-27T04:59:40.077Z,2.39
2024-01-27T05:02:42.347Z,2.41
2024-01-27T05:05:43.970Z,2.43
2024-01-27T05:08:45.531Z,2.43
2024-01-27T05:11:46.587Z,2.44
2024-01-27T05:14:47.634Z,2.47
2024-01-27T05:17:48.697Z,2.49
2024-01-27T05:20:50.289Z,2.49
2024-01-27T05:23:51.299Z,2.49
2024-01-27T05:26:52.467Z,2.49
2024-01-27T05:29:53.444Z,2.49
2024-01-27T05:32:54.545Z,2.50
2024-01-27T05:35:55.629Z,2.50
2024-01-27T05:38:56.670Z,2.50
2024-01-27T05:41:57.655Z,2.49
2024-01-27T05:44:58.772Z,2.49
2024-01-27T05:47:59.947Z,2.49
2024-01-27T05:51:02.624Z,2.47
2024-01-27T05:54:03.953Z,2.48
2024-01-27T05:57:05.413Z,2.48
2024-01-27T06:00:07.018Z,2.49
2024-01-27T06:03:08.064Z,2.49
2024-01-27T06:06:09.320Z,2.50
2024-01-27T06:09:12.175Z,2.51
2024-01-27T06:12:13.384Z,2.51
2024-01-27T06:15:16.178Z,2.49
2024-01-27T06:18:17.270Z,2.48
2024-01-27T06:21:18.753Z,2.50
2024-01-27T06:24:19.838Z,2.54
2024-01-27T06:27:20.937Z,2.57
2024-01-27T06:30:21.932Z,2.58
2024-01-27T06:33:23.018Z,2.58
2024-01-27T06:36:25.289Z,2.55
2024-01-27T06:39:26.595Z,2.57
2024-01-27T06:42:27.742Z,2.56
2024-01-27T06:45:28.749Z,2.59
2024-01-27T06:48:29.852Z,2.59
2024-01-27T06:51:30.924Z,2.59
2024-01-27T06:54:32.122Z,2.58
2024-01-27T06:57:33.557Z,2.59
2024-01-27T07:00:34.631Z,2.61
2024-01-27T07:03:35.676Z,2.62
2024-01-27T07:06:36.748Z,2.64
2024-01-27T07:09:37.780Z,2.65
2024-01-27T07:12:39.188Z,2.67
2024-01-27T07:15:40.197Z,2.68
2024-01-27T07:18:41.511Z,2.71
2024-01-27T07:21:42.743Z,2.75
2024-01-27T07:24:43.972Z,2.80
2024-01-27T07:27:45.379Z,2.82
2024-01-27T07:30:46.596Z,2.85
2024-01-27T07:33:47.811Z,2.85
2024-01-27T07:36:49.866Z,2.86
2024-01-27T07:39:50.838Z,2.90
2024-01-27T07:42:51.957Z,2.95
2024-01-27T07:45:54.253Z,3.02
2024-01-27T07:48:55.242Z,3.07
2024-01-27T07:51:56.322Z,3.12
2024-01-27T07:54:57.209Z,3.17
2024-01-27T07:57:58.728Z,3.23
2024-01-27T08:01:00.092Z,3.28
2024-01-27T08:04:01.206Z,3.32
2024-01-27T08:07:06.749Z,3.36
2024-01-27T08:10:11.547Z,3.38
2024-01-27T08:13:12.582Z,3.37
2024-01-27T08:16:14.864Z,3.39
2024-01-27T08:19:20.649Z,3.42
2024-01-27T08:22:21.804Z,3.45
2024-01-27T08:25:22.753Z,3.49
2024-01-27T08:28:24.917Z,3.51
2024-01-27T08:31:25.952Z,3.54
2024-01-27T08:34:27.223Z,3.56
2024-01-27T08:37:28.310Z,3.59
2024-01-27T08:40:29.279Z,3.61
2024-01-27T08:43:30.176Z,3.63
2024-01-27T08:46:31.197Z,3.64
2024-01-27T08:49:32.268Z,3.62
2024-01-27T08:52:35.686Z,3.62
2024-01-27T08:55:37.956Z,3.61
2024-01-27T08:58:38.904Z,3.61
2024-01-27T09:01:39.917Z,3.60
2024-01-27T09:04:40.944Z,3.57
2024-01-27T09:07:41.931Z,3.53
2024-01-27T09:10:42.892Z,3.50
2024-01-27T09:13:45.873Z,3.48
2024-01-27T09:16:47.614Z,3.45
2024-01-27T09:19:48.926Z,3.46
2024-01-27T09:22:51.210Z,3.46
2024-01-27T09:25:52.222Z,3.45
2024-01-27T09:28:56.107Z,3.47
2024-01-27T09:31:57.198Z,3.50
2024-01-27T09:34:58.905Z,3.56
2024-01-27T09:37:59.918Z,3.62
2024-01-27T09:41:00.893Z,3.67
2024-01-27T09:44:03.424Z,3.71
2024-01-27T09:47:05.902Z,3.74
2024-01-27T09:50:11.563Z,3.74
2024-01-27T09:53:12.877Z,3.73
2024-01-27T09:56:18.476Z,3.73
2024-01-27T09:59:21.617Z,3.77
2024-01-27T10:02:25.625Z,3.81
2024-01-27T10:05:28.372Z,3.85
2024-01-27T10:08:29.367Z,3.89
2024-01-27T10:11:33.774Z,3.92
2024-01-27T10:14:41.227Z,3.94
2024-01-27T10:17:42.216Z,3.97
2024-01-27T10:20:44.278Z,3.97
2024-01-27T10:23:45.506Z,3.99
2024-01-27T10:26:48.279Z,4.00
2024-01-27T10:29:54.825Z,4.00
2024-01-27T10:32:59.656Z,4.00
2024-01-27T10:36:01.043Z,4.01
2024-01-27T10:39:02.026Z,4.00
2024-01-27T10:42:04.519Z,4.01
2024-01-27T10:45:06.096Z,4.00
2024-01-27T10:48:12.857Z,3.96
2024-01-27T10:51:19.170Z,3.92
2024-01-27T10:54:28.066Z,3.91
2024-01-27T10:57:34.161Z,3.90
2024-01-27T11:00:35.621Z,3.87
2024-01-27T11:03:40.685Z,3.87
2024-01-27T11:06:43.836Z,3.89
2024-01-27T11:09:46.005Z,3.91
2024-01-27T11:12:49.541Z,3.90
2024-01-27T11:15:59.081Z,3.88
2024-01-27T11:19:00.445Z,3.82
2024-01-27T11:22:05.296Z,3.82
2024-01-27T11:25:15.245Z,3.85
2024-01-27T11:28:17.429Z,3.88
2024-01-27T11:31:19.944Z,3.86
2024-01-27T11:34:21.501Z,3.84
2024-01-27T11:37:25.749Z,3.82
2024-01-27T11:40:26.737Z,3.81
2024-01-27T11:43:28.418Z,3.82
2024-01-27T11:46:29.582Z,3.83
2024-01-27T11:49:30.905Z,3.82
2024-01-27T11:52:31.975Z,3.82
2024-01-27T11:55:32.980Z,3.79
2024-01-27T11:58:34.201Z,3.81
2024-01-27T12:01:37.200Z,3.81
2024-01-27T12:04:40.266Z,3.84
2024-01-27T12:07:41.405Z,3.88
2024-01-27T12:10:42.364Z,3.94
2024-01-27T12:13:43.349Z,3.92
2024-01-27T12:16:45.051Z,3.88
2024-01-27T12:19:52.726Z,3.86
2024-01-27T12:23:07.131Z,3.84
2024-01-27T12:26:15.238Z,3.83
2024-01-27T12:29:16.254Z,3.85
2024-01-27T12:32:18.484Z,3.88
2024-01-27T12:35:19.661Z,3.92
2024-01-27T12:38:21.048Z,3.92
2024-01-27T12:41:22.104Z,3.89
2024-01-27T12:44:23.111Z,3.90
2024-01-27T12:47:24.219Z,3.91
2024-01-27T12:50:25.354Z,3.93
2024-01-27T12:53:26.913Z,3.94
2024-01-27T12:56:27.892Z,3.96
2024-01-27T12:59:29.135Z,3.97
2024-01-27T13:02:30.243Z,3.98
2024-01-27T13:05:31.222Z,3.94
2024-01-27T13:08:32.531Z,3.93
2024-01-27T13:11:33.792Z,3.95
2024-01-27T13:14:34.830Z,3.94
2024-01-27T13:17:35.823Z,3.92
2024-01-27T13:20:37.593Z,3.89
2024-01-27T13:23:38.643Z,3.86
2024-01-27T13:26:39.686Z,3.84
2024-01-27T13:29:40.635Z,3.80
2024-01-27T13:32:42.194Z,3.81
2024-01-27T13:35:47.083Z,3.82
2024-01-27T13:38:48.057Z,3.84
2024-01-27T13:41:49.075Z,3.83
2024-01-27T13:44:50.049Z,3.84
2024-01-27T13:47:50.999Z,3.81
2024-01-27T13:50:53.511Z,3.78
2024-01-27T13:53:54.488Z,3.80
2024-01-27T13:56:55.571Z,3.79
2024-01-27T13:59:57.201Z,3.79
2024-01-27T14:02:58.326Z,3.77
2024-01-27T14:05:59.445Z,3.73
2024-01-27T14:09:01.366Z,3.73
2024-01-27T14:12:02.444Z,3.71
2024-01-27T14:15:09.135Z,3.70
2024-01-27T14:18:14.577Z,3.72
2024-01-27T14:21:15.583Z,3.74
2024-01-27T14:24:16.595Z,3.73
2024-01-27T14:27:18.714Z,3.68
2024-01-27T14:30:19.757Z,3.65
2024-01-27T14:33:21.466Z,3.60
2024-01-27T14:36:24.100Z,3.58
2024-01-27T14:39:25.106Z,3.58
2024-01-27T14:42:26.129Z,3.55
2024-01-27T14:45:27.218Z,3.53
2024-01-27T14:48:28.448Z,3.50
2024-01-27T14:51:29.587Z,3.48
2024-01-27T14:54:30.592Z,3.49
2024-01-27T14:57:31.703Z,3.48
2024-01-27T15:00:32.820Z,3.48
2024-01-27T15:03:34.279Z,3.47
2024-01-27T15:06:35.703Z,3.46
2024-01-27T15:09:36.751Z,3.43
2024-01-27T15:12:38.217Z,3.42
2024-01-27T15:15:40.211Z,3.38
2024-01-27T15:18:45.102Z,3.35
2024-01-27T15:21:46.484Z,3.29
2024-01-27T15:24:47.475Z,3.27
2024-01-27T15:27:48.739Z,3.22
2024-01-27T15:30:50.086Z,3.18
2024-01-27T15:33:51.493Z,3.14
2024-01-27T15:36:52.738Z,3.07
2024-01-27T15:39:54.005Z,3.04
2024-01-27T15:42:56.307Z,3.02
2024-01-27T15:45:57.400Z,3.01
2024-01-27T15:48:58.514Z,2.99
2024-01-27T15:51:59.659Z,2.94
2024-01-27T15:55:00.633Z,2.90
2024-01-27T15:58:02.240Z,2.88
2024-01-27T16:01:03.539Z,2.88
2024-01-27T16:04:04.585Z,2.87
2024-01-27T16:07:05.604Z,2.86
2024-01-27T16:10:07.088Z,2.88
2024-01-27T16:13:08.158Z,2.90
2024-01-27T16:16:09.182Z,2.90
2024-01-27T16:19:10.436Z,2.89
2024-01-27T16:22:11.499Z,2.89
2024-01-27T16:25:12.431Z,2.86
2024-01-27T16:28:13.477Z,2.87
2024-01-27T16:31:15.186Z,2.86
2024-01-27T16:34:16.268Z,2.82
2024-01-27T16:37:18.447Z,2.81
2024-01-27T16:40:19.904Z,2.79
2024-01-27T16:43:20.874Z,2.76
2024-01-27T16:46:25.225Z,2.75
2024-01-27T16:49:26.553Z,2.73
2024-01-27T16:52:27.808Z,2.71
2024-01-27T16:55:28.803Z,2.71
2024-01-27T16:58:29.808Z,2.72
2024-01-27T17:01:30.747Z,2.72
2024-01-27T17:04:32.340Z,2.76
2024-01-27T17:07:33.547Z,2.74
2024-01-27T17:10:34.574Z,2.72
2024-01-27T17:13:35.540Z,2.68
2024-01-27T17:16:37.812Z,2.66
2024-01-27T17:19:38.887Z,2.66
2024-01-27T17:22:40.515Z,2.69
2024-01-27T17:25:42.645Z,2.71
2024-01-27T17:28:43.869Z,2.71
2024-01-27T17:31:47.554Z,2.69
2024-01-27T17:34:49.566Z,2.70
2024-01-27T17:37:50.571Z,2.72
2024-01-27T17:40:52.875Z,2.77
2024-01-27T17:43:53.831Z,2.78
2024-01-27T17:46:54.790Z,2.79
2024-01-27T17:49:56.211Z,2.79
2024-01-27T17:52:57.294Z,2.77
2024-01-27T17:56:00.985Z,2.73
2024-01-27T17:59:02.021Z,2.71
2024-01-27T18:02:03.115Z,2.71
2024-01-27T18:05:04.304Z,2.74
2024-01-27T18:08:05.954Z,2.73
2024-01-27T18:11:06.976Z,2.70
2024-01-27T18:14:07.975Z,2.69
2024-01-27T18:17:09.149Z,2.68
2024-01-27T18:20:11.310Z,2.70
2024-01-27T18:23:12.394Z,2.72
2024-01-27T18:26:13.478Z,2.73
2024-01-27T18:29:14.474Z,2.72
2024-01-27T18:32:15.488Z,2.69
2024-01-27T18:35:16.660Z,2.68
2024-01-27T18:38:17.839Z,2.69
2024-01-27T18:41:18.860Z,2.69
2024-01-27T18:44:20.842Z,2.70
2024-01-27T18:47:24.993Z,2.71
2024-01-27T18:50:26.532Z,2.71
2024-01-27T18:53:28.139Z,2.72
2024-01-27T18:56:29.192Z,2.73
2024-01-27T18:59:30.142Z,2.70
2024-01-27T19:02:31.609Z,2.69
2024-01-27T19:05:34.123Z,2.64
2024-01-27T19:08:35.416Z,2.60
2024-01-27T19:11:36.589Z,2.58
2024-01-27T19:14:38.157Z,2.54
2024-01-27T19:17:39.228Z,2.52
2024-01-27T19:20:40.331Z,2.50
2024-01-27T19:23:41.285Z,2.50
2024-01-27T19:26:42.597Z,2.51
2024-01-27T19:29:44.099Z,2.52
2024-01-27T19:32:45.592Z,2.52
2024-01-27T19:35:48.347Z,2.53
2024-01-27T19:38:49.323Z,2.52
2024-01-27T19:41:51.812Z,2.51
2024-01-27T19:44:52.761Z,2.49
2024-01-27T19:47:53.829Z,2.49
2024-01-27T19:50:55.379Z,2.47
2024-01-27T19:53:56.389Z,2.42
2024-01-27T19:56:57.356Z,2.36
2024-01-27T19:59:58.665Z,2.27
2024-01-27T20:03:01.653Z,2.19
2024-01-27T20:06:04.810Z,2.14
2024-01-27T20:09:12.440Z,2.10
2024-01-27T20:12:17.508Z,2.08
2024-01-27T20:15:18.814Z,2.07
2024-01-27T20:18:20.485Z,2.06
2024-01-27T20:21:22.869Z,2.06
2024-01-27T20:24:23.854Z,2.06
2024-01-27T20:27:25.065Z,2.08
2024-01-27T20:30:26.073Z,2.12
2024-01-27T20:33:31.645Z,2.17
2024-01-27T20:36:38.629Z,2.13
2024-01-27T20:39:44.417Z,2.11
2024-01-27T20:42:45.555Z,2.10
2024-01-27T20:45:46.577Z,2.10
2024-01-27T20:48:47.841Z,2.07
2024-01-27T20:51:51.503Z,2.05
2024-01-27T20:54:54.529Z,2.01
2024-01-27T20:57:55.847Z,1.98
2024-01-27T21:00:56.916Z,1.97
2024-01-27T23:48:19.640Z,1.62
2024-01-27T23:51:23.411Z,1.64
2024-01-27T23:54:24.535Z,1.65
2024-01-27T23:57:25.545Z,1.62
